Time;durP1;ratioP1;P1;durP2;ratioP2;P2;SDS_P1;SDS_P2;PMS_P1;PMS_P2;Temp;Humidity;BMP_temperature;BMP_pressure;BME280_temperature;BME280_humidity;BME280_pressure;Samples;Min_cycle;Max_cycle;Signal;HPM_P1;HPM_P2
2021/12/28 00:01:33;;;;;;;0.20;0.20;;;;;;;-0.95;100.00;99485.44;5024345;28;20071;-79
2021/12/28 00:04:02;;;;;;;0.30;0.30;;;;;;;-0.94;100.00;99484.41;5029737;28;20057;-79
2021/12/28 00:06:32;;;;;;;0.20;0.20;;;;;;;-0.95;100.00;99483.59;5027703;28;20049;-78
2021/12/28 00:09:05;;;;;;;0.20;0.20;;;;;;;-0.81;100.00;99492.16;5027650;28;20493;-78
2021/12/28 00:11:38;;;;;;;0.40;0.40;;;;;;;-0.84;100.00;99497.16;5028235;28;20038;-78
2021/12/28 00:14:07;;;;;;;0.30;0.30;;;;;;;-0.76;100.00;99491.47;5020097;28;20497;-78
2021/12/28 00:17:58;;;;;;;0.30;0.30;;;;;;;-0.88;100.00;99486.16;5020274;28;20052;-79
2021/12/28 00:19:24;;;;;;;0.30;0.30;;;;;;;-0.82;100.00;99492.41;5021741;28;20076;-80
2021/12/28 00:21:58;;;;;;;0.30;0.30;;;;;;;-0.90;100.00;99477.53;5024711;28;20399;-78
2021/12/28 00:24:31;;;;;;;0.20;0.20;;;;;;;-0.81;100.00;99467.31;5028701;28;20045;-78
2021/12/28 00:27:05;;;;;;;0.30;0.30;;;;;;;-0.87;100.00;99469.06;5022801;28;20142;-79
2021/12/28 00:29:33;;;;;;;0.30;0.30;;;;;;;-0.82;100.00;99476.38;5021465;28;20053;-79
2021/12/28 00:32:07;;;;;;;0.30;0.30;;;;;;;-0.78;100.00;99485.56;5016096;28;20042;-78
2021/12/28 00:34:36;;;;;;;0.20;0.20;;;;;;;-0.87;100.00;99485.91;5019336;28;20045;-80
2021/12/28 00:37:10;;;;;;;0.30;0.30;;;;;;;-0.78;100.00;99480.22;5019526;28;20049;-79
2021/12/28 00:39:38;;;;;;;0.20;0.20;;;;;;;-0.77;100.00;99476.50;5021932;28;20046;-79
2021/12/28 00:42:13;;;;;;;0.20;0.20;;;;;;;-0.90;100.00;99481.03;5014460;28;20050;-78
2021/12/28 00:44:46;;;;;;;0.30;0.30;;;;;;;-0.80;100.00;99483.13;5021621;28;20046;-78
2021/12/28 00:47:15;;;;;;;0.40;0.40;;;;;;;-0.86;100.00;99479.53;5039909;28;20049;-78
2021/12/28 00:49:48;;;;;;;0.30;0.30;;;;;;;-0.80;100.00;99476.94;5029978;28;20037;-79
2021/12/28 00:52:23;;;;;;;0.30;0.30;;;;;;;-0.91;100.00;99460.72;5017964;28;20053;-80
2021/12/28 00:54:51;;;;;;;0.30;0.30;;;;;;;-0.89;100.00;99471.97;5020867;28;20045;-78
2021/12/28 00:57:24;;;;;;;0.30;0.30;;;;;;;-0.86;100.00;99478.69;5022016;28;20050;-79
2021/12/28 00:59:57;;;;;;;0.30;0.30;;;;;;;-0.87;100.00;99469.88;5024562;28;20045;-78
2021/12/28 01:02:31;;;;;;;0.30;0.30;;;;;;;-0.89;100.00;99471.16;5031411;28;20044;-79
2021/12/28 01:04:59;;;;;;;0.25;0.25;;;;;;;-0.86;100.00;99471.53;5021257;28;20497;-78
2021/12/28 01:07:33;;;;;;;0.30;0.30;;;;;;;-0.90;100.00;99466.84;5025642;28;20053;-78
2021/12/28 01:10:10;;;;;;;0.30;0.30;;;;;;;-0.84;100.00;99463.25;5027330;28;20045;-77
2021/12/28 01:12:43;;;;;;;0.30;0.30;;;;;;;-0.91;100.00;99473.22;5037614;28;20057;-79
2021/12/28 01:15:13;;;;;;;0.30;0.30;;;;;;;-0.95;100.00;99458.72;5026188;28;20053;-79
2021/12/28 01:17:46;;;;;;;0.30;0.30;;;;;;;-0.97;100.00;99458.97;5023425;28;20045;-80
2021/12/28 01:20:19;;;;;;;0.20;0.20;;;;;;;-0.97;100.00;99455.50;5020575;28;20486;-77
2021/12/28 01:22:54;;;;;;;0.30;0.30;;;;;;;-0.96;100.00;99457.13;5016221;28;20049;-78
2021/12/28 01:25:23;;;;;;;0.35;0.35;;;;;;;-1.03;100.00;99457.25;5018880;28;20061;-79
2021/12/28 01:27:57;;;;;;;0.30;0.30;;;;;;;-1.02;100.00;99448.19;5021475;28;20053;-78
2021/12/28 01:30:31;;;;;;;0.30;0.30;;;;;;;-1.03;100.00;99442.03;5019668;28;20046;-79
2021/12/28 01:33:00;;;;;;;0.30;0.30;;;;;;;-1.08;100.00;99444.59;5025126;28;20465;-80
2021/12/28 01:35:30;;;;;;;0.20;0.20;;;;;;;-1.10;100.00;99451.22;5020505;28;20045;-78
2021/12/28 01:38:05;;;;;;;0.30;0.30;;;;;;;-1.17;100.00;99431.81;5037901;28;20050;-79
2021/12/28 01:40:42;;;;;;;0.30;0.30;;;;;;;-1.10;100.00;99444.00;5026126;28;20034;-78
2021/12/28 01:43:19;;;;;;;0.20;0.20;;;;;;;-1.17;100.00;99423.81;5025554;28;20416;-79
2021/12/28 01:45:53;;;;;;;0.30;0.30;;;;;;;-1.13;100.00;99440.97;5024343;28;20052;-78
2021/12/28 01:48:30;;;;;;;0.30;0.30;;;;;;;-1.12;100.00;99434.59;5026902;28;20053;-78
2021/12/28 01:51:06;;;;;;;0.30;0.30;;;;;;;-1.13;100.00;99439.13;5029656;28;20680;-77
2021/12/28 01:53:41;;;;;;;0.30;0.30;;;;;;;-1.15;100.00;99435.06;5027491;28;20041;-79
2021/12/28 01:56:31;;;;;;;0.30;0.30;;;;;;;-1.08;100.00;99444.59;5024043;28;20064;-79
2021/12/28 01:59:04;;;;;;;0.30;0.30;;;;;;;-1.22;100.00;99425.31;5027054;28;20058;-79
2021/12/28 02:01:39;;;;;;;0.30;0.30;;;;;;;-1.28;100.00;99420.13;5015704;28;20064;-79
2021/12/28 02:04:14;;;;;;;0.30;0.30;;;;;;;-1.37;100.00;99416.97;5025540;28;20049;-78
2021/12/28 02:06:48;;;;;;;0.30;0.30;;;;;;;-1.32;100.00;99416.28;5029014;28;20390;-79
2021/12/28 02:09:23;;;;;;;0.30;0.30;;;;;;;-1.35;100.00;99411.38;5026399;28;20057;-79
2021/12/28 02:11:52;;;;;;;0.20;0.20;;;;;;;-1.33;100.00;99406.66;5038093;28;20046;-80
2021/12/28 02:14:25;;;;;;;0.30;0.30;;;;;;;-1.41;100.00;99399.78;5026702;28;20061;-80
2021/12/28 02:16:59;;;;;;;0.30;0.30;;;;;;;-1.39;100.00;99398.53;5021246;28;20045;-79
2021/12/28 02:19:32;;;;;;;0.30;0.30;;;;;;;-1.36;100.00;99391.91;5026059;28;20494;-78
2021/12/28 02:22:07;;;;;;;0.32;0.32;;;;;;;-1.43;100.00;99386.69;5025772;28;20049;-78
2021/12/28 02:24:40;;;;;;;0.20;0.20;;;;;;;-1.38;100.00;99376.13;5022143;28;20050;-79
2021/12/28 02:27:13;;;;;;;0.30;0.30;;;;;;;-1.33;100.00;99374.63;5023414;28;20050;-81
2021/12/28 02:29:47;;;;;;;0.30;0.30;;;;;;;-1.39;100.00;99357.69;5026873;28;20467;-78
2021/12/28 02:32:15;;;;;;;0.30;0.30;;;;;;;-1.32;100.00;99365.56;5020113;28;20058;-78
2021/12/28 02:34:48;;;;;;;0.30;0.30;;;;;;;-1.30;100.00;99368.81;5031895;28;20041;-77
2021/12/28 02:37:18;;;;;;;0.30;0.30;;;;;;;-1.26;100.00;99362.75;5026312;28;20072;-79
2021/12/28 02:39:52;;;;;;;0.30;0.30;;;;;;;-1.35;100.00;99368.69;5025644;28;20072;-78
2021/12/28 02:42:26;;;;;;;0.20;0.20;;;;;;;-1.32;100.00;99377.06;5030540;28;20548;-79
2021/12/28 02:45:02;;;;;;;0.28;0.28;;;;;;;-1.30;100.00;99372.28;5021063;28;20041;-78
2021/12/28 02:47:35;;;;;;;0.20;0.20;;;;;;;-1.34;100.00;99375.66;5026905;28;20052;-79
2021/12/28 02:50:06;;;;;;;0.30;0.30;;;;;;;-1.37;100.00;99367.09;5030032;28;20054;-79
2021/12/28 02:52:40;;;;;;;0.30;0.30;;;;;;;-1.33;100.00;99369.28;5023860;28;20038;-79
2021/12/28 02:55:11;;;;;;;0.28;0.28;;;;;;;-1.32;100.00;99377.06;5020194;28;20102;-80
2021/12/28 02:57:49;;;;;;;0.30;0.30;;;;;;;-1.28;100.00;99378.22;5028725;28;20371;-78
2021/12/28 03:00:33;;;;;;;;;;;;;;;-1.23;100.00;99372.16;5025891;28;20386;-78
2021/12/28 03:03:08;;;;;;;0.20;0.20;;;;;;;-1.28;100.00;99372.88;5027808;28;19928;-77
2021/12/28 03:05:43;;;;;;;0.20;0.20;;;;;;;-1.17;100.00;99367.75;5028850;28;20049;-78
2021/12/28 03:08:21;;;;;;;0.30;0.30;;;;;;;-1.17;100.00;99368.56;5025706;28;20073;-78
2021/12/28 03:10:55;;;;;;;0.30;0.30;;;;;;;-1.18;100.00;99366.13;5030416;28;20041;-80
2021/12/28 03:13:25;;;;;;;0.30;0.30;;;;;;;-1.25;100.00;99348.38;5022047;28;20049;-78
2021/12/28 03:15:54;;;;;;;0.30;0.30;;;;;;;-1.26;100.00;99351.28;5027834;28;20053;-78
2021/12/28 03:18:27;;;;;;;0.30;0.30;;;;;;;-1.25;100.00;99342.22;5031501;28;20046;-78
2021/12/28 03:20:56;;;;;;;0.20;0.20;;;;;;;-1.09;100.00;99348.69;5031930;28;20045;-78
2021/12/28 03:23:31;;;;;;;0.30;0.30;;;;;;;-1.14;100.00;99354.75;5028522;28;20060;-78
2021/12/28 03:26:06;;;;;;;0.30;0.30;;;;;;;-1.15;100.00;99342.44;5027925;28;20056;-78
2021/12/28 03:28:42;;;;;;;0.40;0.40;;;;;;;-1.16;100.00;99345.34;5028526;28;20042;-78
2021/12/28 03:31:18;;;;;;;0.40;0.40;;;;;;;-1.28;100.00;99324.81;5021220;28;20732;-78
2021/12/28 03:33:48;;;;;;;0.30;0.30;;;;;;;-1.20;100.00;99335.13;5024171;28;20042;-78
2021/12/28 03:36:18;;;;;;;0.30;0.30;;;;;;;-1.14;100.00;99337.94;5025729;28;20056;-78
2021/12/28 03:38:49;;;;;;;0.30;0.30;;;;;;;-1.09;100.00;99338.00;5020383;28;20042;-78
2021/12/28 03:41:25;;;;;;;0.30;0.30;;;;;;;-1.05;100.00;99339.16;5024743;28;20049;-79
2021/12/28 03:43:59;;;;;;;0.35;0.35;;;;;;;-0.97;100.00;99329.97;5021179;28;20050;-78
2021/12/28 03:46:32;;;;;;;0.30;0.30;;;;;;;-1.08;100.00;99321.78;5028529;28;20048;-78
2021/12/28 03:49:06;;;;;;;0.30;0.30;;;;;;;-0.99;100.00;99318.75;5028882;28;20402;-78
2021/12/28 03:51:39;;;;;;;0.20;0.20;;;;;;;-0.93;100.00;99325.78;5020089;28;20041;-79
2021/12/28 03:54:13;;;;;;;0.30;0.30;;;;;;;-0.98;100.00;99328.34;5020139;28;20058;-78
2021/12/28 03:56:47;;;;;;;0.30;0.30;;;;;;;-1.03;100.00;99323.72;5022545;28;20498;-79
2021/12/28 03:59:20;;;;;;;0.30;0.30;;;;;;;-0.96;100.00;99323.59;5025272;28;20075;-78
2021/12/28 04:01:54;;;;;;;0.32;0.32;;;;;;;-1.00;100.00;99315.22;5027035;28;20037;-78
2021/12/28 04:04:27;;;;;;;0.20;0.20;;;;;;;-0.99;100.00;99316.06;5014449;28;20057;-78
2021/12/28 04:07:04;;;;;;;0.30;0.30;;;;;;;-0.96;100.00;99319.06;5026958;28;20703;-78
2021/12/28 04:10:01;;;;;;;0.30;0.30;;;;;;;-0.95;100.00;99314.50;5021061;28;20053;-78
2021/12/28 04:12:34;;;;;;;0.30;0.30;;;;;;;-0.98;100.00;99313.16;5021508;28;20049;-78
2021/12/28 04:15:10;;;;;;;0.30;0.30;;;;;;;-0.97;100.00;99306.75;5025656;28;20482;-78
2021/12/28 04:17:43;;;;;;;0.30;0.30;;;;;;;-1.01;100.00;99302.13;5024008;28;20400;-79
2021/12/28 04:20:18;;;;;;;0.30;0.30;;;;;;;-1.04;100.00;99296.22;5020371;28;20063;-79
2021/12/28 04:22:51;;;;;;;0.25;0.25;;;;;;;-1.12;100.00;99299.28;5027458;28;20046;-78
2021/12/28 04:25:21;;;;;;;0.40;0.40;;;;;;;-1.15;100.00;99285.56;5017486;28;20054;-78
2021/12/28 04:27:54;;;;;;;0.30;0.30;;;;;;;-1.12;100.00;99290.44;5026370;28;20040;-78
2021/12/28 04:30:27;;;;;;;0.30;0.30;;;;;;;-1.17;100.00;99280.47;5024787;28;20045;-79
2021/12/28 04:32:55;;;;;;;0.30;0.30;;;;;;;-1.16;100.00;99276.75;5024054;28;20054;-78
2021/12/28 04:35:29;;;;;;;0.30;0.30;;;;;;;-1.16;100.00;99276.75;5031809;28;20578;-78
2021/12/28 04:38:02;;;;;;;0.30;0.30;;;;;;;-1.18;100.00;99281.50;5021661;28;20041;-78
2021/12/28 04:40:32;;;;;;;0.30;0.30;;;;;;;-1.10;100.00;99281.13;5025524;28;20817;-79
2021/12/28 04:43:00;;;;;;;0.20;0.20;;;;;;;-1.19;100.00;99282.56;5029293;28;20049;-78
2021/12/28 04:45:36;;;;;;;0.30;0.30;;;;;;;-1.22;100.00;99267.81;5025782;28;20052;-78
2021/12/28 04:48:09;;;;;;;0.20;0.20;;;;;;;-1.16;100.00;99274.09;5022870;28;20528;-79
2021/12/28 04:50:44;;;;;;;0.30;0.30;;;;;;;-1.14;100.00;99268.50;5023999;28;20486;-78
2021/12/28 04:53:18;;;;;;;0.30;0.30;;;;;;;-1.10;100.00;99258.97;5020791;28;20053;-78
2021/12/28 04:55:50;;;;;;;0.30;0.30;;;;;;;-1.16;100.00;99254.56;5027283;28;20552;-79
2021/12/28 04:58:23;;;;;;;0.38;0.38;;;;;;;-1.16;100.00;99247.41;5026493;28;20045;-78
2021/12/28 05:00:57;;;;;;;0.30;0.30;;;;;;;-1.21;100.00;99245.41;5023133;28;20046;-78
2021/12/28 05:03:31;;;;;;;0.30;0.30;;;;;;;-1.22;100.00;99245.66;5024345;28;20054;-79
2021/12/28 05:06:04;;;;;;;0.30;0.30;;;;;;;-1.21;100.00;99252.63;5027662;28;20053;-78
2021/12/28 05:08:40;;;;;;;0.40;0.40;;;;;;;-1.20;100.00;99248.91;5027401;28;20045;-78
2021/12/28 05:11:15;;;;;;;0.30;0.30;;;;;;;-1.16;100.00;99257.25;5021083;28;20521;-78
2021/12/28 05:13:48;;;;;;;0.20;0.20;;;;;;;-1.07;100.00;99250.50;5022718;28;20041;-78
2021/12/28 05:16:22;;;;;;;0.30;0.30;;;;;;;-1.08;100.00;99256.88;5019289;28;20058;-79
2021/12/28 05:18:55;;;;;;;0.32;0.32;;;;;;;-1.09;100.00;99256.06;5026667;28;20054;-77
2021/12/28 05:21:28;;;;;;;0.38;0.38;;;;;;;-1.08;100.00;99256.88;5015730;28;20054;-79
2021/12/28 05:24:02;;;;;;;0.30;0.30;;;;;;;-1.17;100.00;99243.09;5023666;28;20049;-77
2021/12/28 05:26:36;;;;;;;0.30;0.30;;;;;;;-1.07;100.00;99245.16;5022962;28;20042;-78
2021/12/28 05:29:10;;;;;;;0.40;0.38;;;;;;;-1.04;100.00;99233.97;5018157;28;20403;-79
2021/12/28 05:31:38;;;;;;;0.25;0.25;;;;;;;-1.14;100.00;99233.81;5014048;28;20425;-78
2021/12/28 05:34:07;;;;;;;0.30;0.30;;;;;;;-1.16;100.00;99225.22;5017521;28;20038;-78
2021/12/28 05:36:36;;;;;;;0.20;0.20;;;;;;;-1.07;100.00;99229.13;5022066;28;20053;-78
2021/12/28 05:39:09;;;;;;;0.30;0.30;;;;;;;-1.20;100.00;99222.22;5013115;28;20038;-78
2021/12/28 05:41:43;;;;;;;0.30;0.30;;;;;;;-1.14;100.00;99225.78;5019379;28;20064;-78
2021/12/28 05:44:17;;;;;;;0.30;0.30;;;;;;;-1.15;100.00;99229.50;5025311;28;20048;-79
2021/12/28 05:46:51;;;;;;;0.30;0.30;;;;;;;-1.12;100.00;99235.19;5021306;28;20563;-79
2021/12/28 05:49:25;;;;;;;0.30;0.30;;;;;;;-1.18;100.00;99240.66;5019966;28;20046;-78
2021/12/28 05:51:58;;;;;;;0.30;0.30;;;;;;;-1.15;100.00;99242.84;5020143;28;20050;-79
2021/12/28 05:54:26;;;;;;;0.40;0.40;;;;;;;-1.17;100.00;99235.09;5025118;28;20048;-78
2021/12/28 05:56:56;;;;;;;0.40;0.40;;;;;;;-1.13;100.00;99236.22;5023715;28;20041;-78
2021/12/28 05:59:29;;;;;;;0.30;0.30;;;;;;;-1.06;100.00;99238.75;5015212;28;20426;-78
2021/12/28 06:02:03;;;;;;;0.30;0.30;;;;;;;-1.08;100.00;99227.50;5016601;28;20452;-80
2021/12/28 06:04:36;;;;;;;0.30;0.30;;;;;;;-1.21;100.00;99204.56;5012483;28;20068;-78
2021/12/28 06:07:05;;;;;;;0.30;0.30;;;;;;;-1.22;100.00;99224.31;5019257;28;20407;-78
2021/12/28 06:09:33;;;;;;;0.20;0.20;;;;;;;-1.20;100.00;99219.56;5022198;28;20054;-78
2021/12/28 06:12:09;;;;;;;0.30;0.30;;;;;;;-1.13;100.00;99230.06;5023435;28;20738;-78
2021/12/28 06:14:42;;;;;;;0.30;0.30;;;;;;;-1.17;100.00;99239.59;5023195;28;20050;-78
2021/12/28 06:17:10;;;;;;;0.30;0.30;;;;;;;-1.26;100.00;99215.94;5022272;28;20037;-79
2021/12/28 06:19:39;;;;;;;0.30;0.30;;;;;;;-1.19;100.00;99229.16;5022291;28;20046;-80
2021/12/28 06:22:07;;;;;;;0.30;0.30;;;;;;;-1.16;100.00;99235.88;5024939;28;20053;-79
2021/12/28 06:24:35;;;;;;;0.30;0.30;;;;;;;-1.21;100.00;99232.06;5016874;28;20406;-80
2021/12/28 06:27:10;;;;;;;0.20;0.20;;;;;;;-1.23;100.00;99239.53;5020426;28;20052;-80
2021/12/28 06:29:43;;;;;;;0.20;0.20;;;;;;;-1.17;100.00;99236.94;5023427;28;20046;-79
2021/12/28 06:32:16;;;;;;;0.30;0.30;;;;;;;-1.22;100.00;99232.31;5020519;28;20049;-79
2021/12/28 06:34:50;;;;;;;0.30;0.30;;;;;;;-1.28;100.00;99222.59;5025139;28;20045;-78
2021/12/28 06:37:23;;;;;;;0.32;0.30;;;;;;;-1.27;100.00;99224.19;5020208;28;20406;-80
2021/12/28 06:39:51;;;;;;;0.38;0.38;;;;;;;-1.29;100.00;99218.31;5023889;28;20057;-78
2021/12/28 06:42:26;;;;;;;0.30;0.30;;;;;;;-1.16;100.00;99227.88;5022225;28;20053;-78
2021/12/28 06:44:54;;;;;;;0.20;0.20;;;;;;;-1.23;100.00;99212.81;5020368;28;20050;-79
2021/12/28 06:47:27;;;;;;;0.30;0.30;;;;;;;-1.16;100.00;99218.03;5020879;28;20456;-79
2021/12/28 06:50:00;;;;;;;0.30;0.30;;;;;;;-1.29;100.00;99205.75;5016151;28;20049;-79
2021/12/28 06:52:34;;;;;;;0.30;0.30;;;;;;;-1.26;100.00;99212.47;5026350;28;20053;-78
2021/12/28 06:55:09;;;;;;;0.22;0.22;;;;;;;-1.26;100.00;99215.94;5019623;28;20056;-79
2021/12/28 06:57:44;;;;;;;0.30;0.30;;;;;;;-1.26;100.00;99217.81;5022348;28;20072;-79
2021/12/28 07:00:19;;;;;;;0.30;0.30;;;;;;;-1.25;100.00;99216.78;5023070;28;20053;-78
2021/12/28 07:02:47;;;;;;;0.35;0.35;;;;;;;-1.34;100.00;99211.03;5023918;28;20037;-79
2021/12/28 07:05:21;;;;;;;0.20;0.20;;;;;;;-1.34;100.00;99204.84;5023961;28;20045;-79
2021/12/28 07:07:54;;;;;;;0.30;0.30;;;;;;;-1.38;100.00;99199.19;5024051;28;20745;-81
2021/12/28 07:10:27;;;;;;;0.25;0.25;;;;;;;-1.36;100.00;99202.44;5022562;28;20054;-79
2021/12/28 07:13:01;;;;;;;0.30;0.30;;;;;;;-1.36;100.00;99197.09;5026673;28;20058;-78
2021/12/28 07:15:30;;;;;;;0.20;0.20;;;;;;;-1.33;100.00;99195.81;5022655;28;20041;-79
2021/12/28 07:18:04;;;;;;;0.30;0.30;;;;;;;-1.33;100.00;99195.81;5022729;28;20056;-79
2021/12/28 07:20:37;;;;;;;0.30;0.30;;;;;;;-1.37;100.00;99196.28;5022306;28;20053;-78
2021/12/28 07:23:11;;;;;;;0.30;0.30;;;;;;;-1.30;100.00;99198.00;5027658;28;20041;-79
2021/12/28 07:25:45;;;;;;;0.40;0.40;;;;;;;-1.29;100.00;99203.09;5016772;28;20050;-78
2021/12/28 07:28:20;;;;;;;0.30;0.30;;;;;;;-1.29;100.00;99199.63;5022076;28;20049;-79
2021/12/28 07:30:54;;;;;;;0.40;0.40;;;;;;;-1.29;100.00;99202.28;5020916;28;20058;-80
2021/12/28 07:33:22;;;;;;;0.30;0.30;;;;;;;-1.33;100.00;99198.47;5021907;28;20044;-79
2021/12/28 07:35:55;;;;;;;0.30;0.30;;;;;;;-1.45;100.00;99183.31;5024557;28;20064;-78
2021/12/28 07:38:28;;;;;;;0.30;0.30;;;;;;;-1.41;100.00;99192.47;5023887;28;20057;-79
2021/12/28 07:40:56;;;;;;;0.20;0.20;;;;;;;-1.44;100.00;99192.13;5026040;28;20056;-78
2021/12/28 07:43:31;;;;;;;0.40;0.40;;;;;;;-1.29;100.00;99192.41;5020462;28;20775;-79
2021/12/28 07:46:05;;;;;;;0.30;0.30;;;;;;;-1.39;100.00;99193.03;5040542;28;20502;-79
2021/12/28 07:48:38;;;;;;;0.30;0.30;;;;;;;-1.50;100.00;99174.41;5016747;28;20061;-80
2021/12/28 07:51:12;;;;;;;0.30;0.30;;;;;;;-1.35;100.00;99185.38;5025879;28;20045;-79
2021/12/28 07:53:45;;;;;;;0.20;0.20;;;;;;;-1.32;100.00;99187.56;5021252;28;21270;-79
2021/12/28 07:56:18;;;;;;;0.35;0.35;;;;;;;-1.36;100.00;99186.41;5020349;28;20068;-79
2021/12/28 07:58:53;;;;;;;0.30;0.30;;;;;;;-1.40;100.00;99177.25;5020993;28;20064;-79
2021/12/28 08:01:21;;;;;;;0.30;0.30;;;;;;;-1.38;100.00;99186.66;5024320;28;20072;-79
2021/12/28 08:03:55;;;;;;;0.40;0.40;;;;;;;-1.32;100.00;99184.09;5012361;28;20046;-79
2021/12/28 08:06:28;;;;;;;0.30;0.30;;;;;;;-1.32;100.00;99197.44;5019445;28;20072;-78
2021/12/28 08:09:01;;;;;;;0.30;0.30;;;;;;;-1.28;100.00;99177.22;5020254;28;20054;-80
2021/12/28 08:11:35;;;;;;;0.30;0.30;;;;;;;-1.37;100.00;99182.94;5021810;28;20053;-80
2021/12/28 08:14:05;;;;;;;0.55;0.30;;;;;;;-1.38;100.00;99185.84;5024043;28;20056;-77
2021/12/28 08:16:38;;;;;;;0.40;0.40;;;;;;;-1.26;100.00;99185.78;5028874;28;20076;-78
2021/12/28 08:19:11;;;;;;;0.30;0.30;;;;;;;-1.16;100.00;99187.84;5021893;28;20064;-80
2021/12/28 08:21:45;;;;;;;0.20;0.20;;;;;;;-1.24;100.00;99178.38;5023330;28;20058;-78
2021/12/28 08:24:18;;;;;;;0.38;0.38;;;;;;;-1.16;100.00;99172.66;5019784;28;20041;-79
2021/12/28 08:26:46;;;;;;;0.22;0.22;;;;;;;-1.24;100.00;99175.69;5024216;28;20049;-80
2021/12/28 08:29:16;;;;;;;0.30;0.30;;;;;;;-1.15;100.00;99165.44;5019732;28;20493;-80
2021/12/28 08:31:49;;;;;;;0.40;0.40;;;;;;;-1.21;100.00;99161.88;5018085;28;20050;-81
2021/12/28 08:34:23;;;;;;;0.30;0.30;;;;;;;-1.23;100.00;99156.78;5025052;28;20410;-80
2021/12/28 08:36:52;;;;;;;0.30;0.30;;;;;;;-1.17;100.00;99156.84;5027699;28;20060;-80
2021/12/28 08:39:20;;;;;;;0.40;0.40;;;;;;;-1.39;100.00;99125.53;5022767;28;20045;-80
2021/12/28 08:41:48;;;;;;;0.30;0.30;;;;;;;-1.06;100.00;99162.13;5033699;28;20045;-80
2021/12/28 08:44:27;;;;;;;0.30;0.30;;;;;;;-1.04;100.00;99148.53;5029180;28;20751;-80
2021/12/28 08:47:00;;;;;;;0.30;0.30;;;;;;;-1.10;100.00;99152.97;5023231;28;20037;-80
2021/12/28 08:49:33;;;;;;;0.30;0.30;;;;;;;-1.16;100.00;99155.81;5033412;28;20049;-81
2021/12/28 08:52:02;;;;;;;0.40;0.40;;;;;;;-1.23;100.00;99154.09;5017610;28;20061;-80
2021/12/28 08:54:31;;;;;;;0.30;0.30;;;;;;;-1.28;100.00;99135.31;5022950;28;20050;-80
2021/12/28 08:56:59;;;;;;;0.30;0.30;;;;;;;-1.20;100.00;99147.47;5001697;28;20743;-82
2021/12/28 08:59:52;;;;;;;0.30;0.30;;;;;;;-1.13;100.00;99145.47;5003270;28;20057;-80
2021/12/28 09:02:28;;;;;;;0.40;0.40;;;;;;;-1.03;100.00;99126.94;4999373;28;20828;-80
2021/12/28 09:05:02;;;;;;;0.30;0.30;;;;;;;-1.10;100.00;99131.63;5000263;28;20092;-81
2021/12/28 09:07:35;;;;;;;0.30;0.30;;;;;;;-1.13;100.00;99129.44;5004219;28;20068;-81
2021/12/28 09:10:05;;;;;;;0.30;0.30;;;;;;;-1.15;100.00;99138.75;5001172;28;20053;-80
2021/12/28 09:12:39;;;;;;;0.20;0.20;;;;;;;-1.12;100.00;99136.41;5026078;28;20955;-81
2021/12/28 09:15:14;;;;;;;0.30;0.30;;;;;;;-1.21;100.00;99132.50;5027315;28;20056;-81
2021/12/28 09:17:48;;;;;;;0.30;0.30;;;;;;;-1.24;100.00;99141.00;5018377;28;20061;-81
2021/12/28 09:20:24;;;;;;;0.30;0.30;;;;;;;-1.17;100.00;99138.16;5019000;28;20049;-81
2021/12/28 09:22:57;;;;;;;0.40;0.40;;;;;;;-1.24;100.00;99130.31;5023778;28;20064;-82
2021/12/28 09:25:31;;;;;;;0.30;0.30;;;;;;;-1.18;100.00;99125.88;5020236;28;20057;-81
2021/12/28 09:28:06;;;;;;;0.30;0.30;;;;;;;-1.30;100.00;99118.72;5020108;28;20071;-81
2021/12/28 09:30:43;;;;;;;0.30;0.30;;;;;;;-1.16;100.00;99126.44;5020865;28;20045;-81
2021/12/28 09:33:16;;;;;;;0.30;0.30;;;;;;;-1.15;100.00;99125.38;5019838;28;20053;-80
2021/12/28 09:35:49;;;;;;;0.22;0.22;;;;;;;-1.07;100.00;99122.31;5019784;28;20054;-81
2021/12/28 09:38:23;;;;;;;0.30;0.30;;;;;;;-1.00;100.00;99124.84;5021103;28;20068;-80
2021/12/28 09:40:52;;;;;;;0.30;0.30;;;;;;;-0.92;100.00;99122.56;5022370;28;20430;-81
2021/12/28 09:43:25;;;;;;;0.40;0.40;;;;;;;-0.87;100.00;99116.50;5025541;28;20060;-82
2021/12/28 09:45:54;;;;;;;0.30;0.30;;;;;;;-1.11;100.00;99073.13;5024290;28;20591;-81
2021/12/28 09:48:28;;;;;;;0.30;0.30;;;;;;;-0.89;100.00;99119.41;5023657;28;20064;-80
2021/12/28 09:51:02;;;;;;;0.22;0.22;;;;;;;-0.83;100.00;99108.81;5019638;28;20049;-80
2021/12/28 09:53:37;;;;;;;0.30;0.30;;;;;;;-1.00;100.00;99095.47;5023472;28;20057;-81
2021/12/28 09:56:06;;;;;;;0.30;0.30;;;;;;;-0.91;100.00;99102.00;5024381;28;20481;-80
2021/12/28 09:58:41;;;;;;;0.40;0.40;;;;;;;-0.88;100.00;99109.56;5022238;28;20490;-82
2021/12/28 10:01:15;;;;;;;0.30;0.30;;;;;;;-0.80;100.00;99111.00;5022327;28;20057;-81
2021/12/28 10:03:44;;;;;;;0.40;0.40;;;;;;;-0.76;100.00;99099.59;5020262;28;20061;-81
2021/12/28 10:06:21;;;;;;;0.20;0.20;;;;;;;-0.76;100.00;99091.59;5020885;28;20472;-80
2021/12/28 10:09:06;;;;;;;0.40;0.40;;;;;;;-0.73;100.00;99090.28;5021814;28;20053;-82
2021/12/28 10:11:36;;;;;;;0.32;0.32;;;;;;;-0.68;100.00;99085.00;5023093;28;20057;-81
2021/12/28 10:14:14;;;;;;;0.38;0.38;;;;;;;-0.78;100.00;99082.19;5021634;28;20054;-80
2021/12/28 10:16:52;;;;;;;0.30;0.30;;;;;;;-0.64;100.00;99077.31;5024105;28;20069;-80
2021/12/28 10:19:38;;;;;;;0.20;0.20;;;;;;;-0.57;100.00;99092.09;5024644;28;20060;-82
2021/12/28 10:22:27;;;;;;;0.30;0.30;;;;;;;-0.61;100.00;99088.31;5023630;28;20053;-81
2021/12/28 10:25:08;;;;;;;0.20;0.20;;;;;;;-0.60;100.00;99079.25;5025687;28;20717;-82
2021/12/28 10:27:39;;;;;;;0.40;0.40;;;;;;;-0.70;100.00;99065.75;5023508;28;20718;-80
2021/12/28 10:30:12;;;;;;;0.40;0.40;;;;;;;-0.55;100.00;99071.31;5028268;28;20048;-82
2021/12/28 10:32:43;;;;;;;0.50;0.40;;;;;;;-0.53;100.00;99063.84;5027374;28;20095;-83
2021/12/28 10:35:14;;;;;;;0.35;0.35;;;;;;;-0.64;100.00;99051.41;5027220;28;20064;-83
2021/12/28 10:37:49;;;;;;;0.35;0.35;;;;;;;-0.46;100.00;99066.34;5020663;28;20050;-82
2021/12/28 10:40:27;;;;;;;0.30;0.30;;;;;;;-0.49;100.00;99052.69;5024038;28;20079;-81
2021/12/28 10:43:03;;;;;;;0.40;0.40;;;;;;;-0.37;100.00;99059.50;5022711;28;20060;-80
2021/12/28 10:45:39;;;;;;;0.30;0.30;;;;;;;-0.36;100.00;99052.28;5033023;28;20061;-80
2021/12/28 10:48:13;;;;;;;0.32;0.32;;;;;;;-0.44;100.00;99034.00;5026064;28;20057;-81
2021/12/28 10:50:49;;;;;;;0.30;0.30;;;;;;;-0.33;100.00;99057.16;5038916;28;20041;-80
2021/12/28 10:53:26;;;;;;;0.32;0.32;;;;;;;-0.33;100.00;99043.81;5043413;28;20049;-80
2021/12/28 10:56:01;;;;;;;0.30;0.30;;;;;;;-0.33;100.00;99056.34;5040616;28;20046;-80
2021/12/28 10:58:40;;;;;;;0.30;0.30;;;;;;;-0.21;100.00;99063.19;5043659;28;20847;-80
2021/12/28 11:01:16;;;;;;;0.30;0.30;;;;;;;-0.29;100.00;99049.44;5041250;28;20057;-79
2021/12/28 11:03:47;;;;;;;0.30;0.30;;;;;;;-0.28;100.00;99054.53;5042512;28;20505;-79
2021/12/28 11:06:23;;;;;;;0.40;0.40;;;;;;;-0.29;100.00;99060.13;5040169;28;20056;-80
2021/12/28 11:08:53;;;;;;;0.32;0.30;;;;;;;-0.20;100.00;99045.28;5037688;28;20529;-81
2021/12/28 11:11:27;;;;;;;0.30;0.30;;;;;;;-0.20;100.00;99035.38;5045556;28;20686;-79
2021/12/28 11:13:57;;;;;;;0.30;0.30;;;;;;;-0.06;100.00;99017.09;5038364;28;20790;-80
2021/12/28 11:16:27;;;;;;;0.30;0.30;;;;;;;-0.05;100.00;99026.75;5042800;28;20049;-79
2021/12/28 11:19:06;;;;;;;0.20;0.20;;;;;;;-0.09;100.00;99032.84;5035210;28;20773;-81
2021/12/28 11:21:36;;;;;;;0.30;0.30;;;;;;;-0.10;100.00;99028.56;5048059;28;20055;-79
2021/12/28 11:24:13;;;;;;;0.30;0.30;;;;;;;-0.12;100.00;99017.31;5044224;28;20049;-81
2021/12/28 11:26:42;;;;;;;0.20;0.20;;;;;;;-0.09;100.00;99004.22;5043619;28;20064;-80
2021/12/28 11:29:17;;;;;;;0.30;0.30;;;;;;;-0.15;100.00;98994.56;5054061;28;20053;-79
2021/12/28 11:31:50;;;;;;;0.20;0.20;;;;;;;0.05;100.00;99001.19;5041085;28;20041;-80
2021/12/28 11:34:23;;;;;;;0.30;0.30;;;;;;;0.00;100.00;98991.25;5042111;28;20057;-81
2021/12/28 11:36:54;;;;;;;0.30;0.30;;;;;;;-0.02;100.00;98996.03;5037581;28;20049;-80
2021/12/28 11:39:30;;;;;;;0.30;0.30;;;;;;;0.01;100.00;98990.16;5040231;28;20053;-80
2021/12/28 11:42:05;;;;;;;0.30;0.30;;;;;;;-0.09;100.00;98990.06;5042044;28;20049;-79
2021/12/28 11:44:34;;;;;;;0.30;0.30;;;;;;;-0.22;100.00;98968.00;5038086;28;20059;-79
2021/12/28 11:47:09;;;;;;;0.30;0.30;;;;;;;-0.22;100.00;98951.13;5043769;28;20049;-80
2021/12/28 11:49:41;;;;;;;0.38;0.38;;;;;;;0.02;100.00;98985.63;5040353;28;20676;-80
2021/12/28 11:52:13;;;;;;;0.20;0.20;;;;;;;0.08;100.00;98965.88;5041463;28;20056;-80
2021/12/28 11:54:45;;;;;;;0.40;0.40;;;;;;;0.02;100.00;98959.69;5048911;28;20064;-80